This is the latest recevied weather packets stored in our database for station/object LU8FCJ-5. If no packets are shown the sender has not sent any weather packets the latest 1 day(s).
| Time | Temp. | Humidity | Pressure | Rain* | Wind** | Luminosity | Snow |
|---|---|---|---|---|---|---|---|
| 1778128302 | 18.33° C | 87% | 1001.9 hPa | 0 mm | - | - | - |
| 1778127992 | 18.33° C | 88% | 1002.2 hPa | 0 mm | - | - | - |
| 1778127682 | 18.33° C | 87% | 1002.6 hPa | 0 mm | - | - | - |
| 1778127375 | 18.33° C | 86% | 1002.9 hPa | 0 mm | - | - | - |
| 1778127062 | 18.89° C | 85% | 1003.5 hPa | 0 mm | - | - | - |
| 1778126752 | 19.44° C | 83% | 1003.3 hPa | 0 mm | - | - | - |
| 1778126464 | 19.44° C | 83% | 1003.7 hPa | 0 mm | - | - | - |
| 1778125824 | 19.44° C | 83% | 1004 hPa | 0 mm | - | - | - |
| 1778125201 | 20° C | 83% | 1003.5 hPa | 0 mm | - | - | - |
| 1778124891 | 20° C | 83% | 1003 hPa | 0 mm | - | - | - |
| 1778124581 | 20° C | 83% | 1003.3 hPa | 0 mm | - | - | - |
| 1778124270 | 20° C | 83% | 1002.3 hPa | 0 mm | - | - | - |
| 1778123960 | 20° C | 83% | 1001.7 hPa | 0 mm | - | - | - |
| 1778123656 | 20° C | 82% | 1003 hPa | 0 mm | - | - | - |
| 1778123339 | 20.56° C | 82% | 1002.7 hPa | 0 mm | - | - | - |
| 1778123030 | 20.56° C | 82% | 1002.5 hPa | 0 mm | - | - | - |
| 1778122719 | 20.56° C | 81% | 1001.8 hPa | 0 mm | - | - | - |
| 1778122100 | 21.11° C | 84% | 1000.8 hPa | 0 mm | - | - | - |
| 1778121789 | 21.67° C | 83% | 1000.9 hPa | 0 mm | - | - | - |
| 1778121479 | 21.67° C | 86% | 1002 hPa | 0 mm | - | - | - |
| 1778121169 | 21.67° C | 87% | 1001.9 hPa | 0 mm | - | - | - |
| 1778106494 | 24.44° C | 81% | 1001.1 hPa | 0 mm | - | - | - |
| 1778105253 | 24.44° C | 81% | 1000.9 hPa | 0 mm | - | - | - |
| 1778104943 | 24.44° C | 81% | 1000.8 hPa | 0 mm | - | - | - |
| 1778102772 | 26.11° C | 78% | 1000.6 hPa | 0 mm | - | - | - |
* Rain latest hour (hover to see other rain measurements)
** Current wind speed in m/s (hover to see current wind gust speed)